sensor_id;sensor_type;location;lat;lon;timestamp;P1;durP1;ratioP1;P2;durP2;ratioP2
21729;SDS011;11027;51.030;13.812;2023-04-16T00:02:22;9.57;;;8.40;;
21729;SDS011;11027;51.030;13.812;2023-04-16T00:04:48;11.30;;;8.15;;
21729;SDS011;11027;51.030;13.812;2023-04-16T00:07:13;9.48;;;8.13;;
21729;SDS011;11027;51.030;13.812;2023-04-16T00:09:38;9.55;;;7.72;;
21729;SDS011;11027;51.030;13.812;2023-04-16T00:12:04;10.13;;;7.82;;
21729;SDS011;11027;51.030;13.812;2023-04-16T00:14:30;10.70;;;7.75;;
21729;SDS011;11027;51.030;13.812;2023-04-16T00:16:55;13.45;;;8.13;;
21729;SDS011;11027;51.030;13.812;2023-04-16T00:19:20;9.80;;;8.13;;
21729;SDS011;11027;51.030;13.812;2023-04-16T00:21:46;10.38;;;8.05;;
21729;SDS011;11027;51.030;13.812;2023-04-16T00:24:11;10.35;;;8.18;;
21729;SDS011;11027;51.030;13.812;2023-04-16T00:26:36;9.48;;;7.85;;
21729;SDS011;11027;51.030;13.812;2023-04-16T00:29:01;12.23;;;8.05;;
21729;SDS011;11027;51.030;13.812;2023-04-16T00:31:30;10.63;;;7.35;;
21729;SDS011;11027;51.030;13.812;2023-04-16T00:33:57;9.15;;;7.25;;
21729;SDS011;11027;51.030;13.812;2023-04-16T00:36:23;8.18;;;7.38;;
21729;SDS011;11027;51.030;13.812;2023-04-16T00:38:49;8.75;;;7.85;;
21729;SDS011;11027;51.030;13.812;2023-04-16T00:41:15;10.07;;;7.45;;
21729;SDS011;11027;51.030;13.812;2023-04-16T00:43:40;9.30;;;7.35;;
21729;SDS011;11027;51.030;13.812;2023-04-16T00:46:06;11.35;;;7.50;;
21729;SDS011;11027;51.030;13.812;2023-04-16T00:48:32;8.40;;;7.28;;
21729;SDS011;11027;51.030;13.812;2023-04-16T00:50:58;11.00;;;7.50;;
21729;SDS011;11027;51.030;13.812;2023-04-16T00:53:25;8.52;;;7.35;;
21729;SDS011;11027;51.030;13.812;2023-04-16T00:55:51;8.07;;;7.28;;
21729;SDS011;11027;51.030;13.812;2023-04-16T00:58:17;7.85;;;7.13;;
21729;SDS011;11027;51.030;13.812;2023-04-16T01:00:42;9.20;;;7.55;;
21729;SDS011;11027;51.030;13.812;2023-04-16T01:03:07;7.90;;;7.10;;
21729;SDS011;11027;51.030;13.812;2023-04-16T01:05:34;7.88;;;7.07;;
21729;SDS011;11027;51.030;13.812;2023-04-16T01:08:00;10.13;;;7.03;;
21729;SDS011;11027;51.030;13.812;2023-04-16T01:10:25;9.10;;;7.30;;
21729;SDS011;11027;51.030;13.812;2023-04-16T01:12:50;8.93;;;6.53;;
21729;SDS011;11027;51.030;13.812;2023-04-16T01:15:16;7.93;;;7.13;;
21729;SDS011;11027;51.030;13.812;2023-04-16T01:17:42;8.32;;;7.30;;
21729;SDS011;11027;51.030;13.812;2023-04-16T01:20:09;7.95;;;7.00;;
21729;SDS011;11027;51.030;13.812;2023-04-16T01:22:34;7.15;;;6.45;;
21729;SDS011;11027;51.030;13.812;2023-04-16T01:24:59;7.35;;;6.65;;
21729;SDS011;11027;51.030;13.812;2023-04-16T01:27:25;10.02;;;7.15;;
21729;SDS011;11027;51.030;13.812;2023-04-16T01:29:50;8.10;;;6.78;;
21729;SDS011;11027;51.030;13.812;2023-04-16T01:32:16;8.02;;;6.80;;
21729;SDS011;11027;51.030;13.812;2023-04-16T01:34:41;9.00;;;7.78;;
21729;SDS011;11027;51.030;13.812;2023-04-16T01:37:07;7.97;;;7.03;;
21729;SDS011;11027;51.030;13.812;2023-04-16T01:39:32;7.65;;;6.85;;
21729;SDS011;11027;51.030;13.812;2023-04-16T01:41:57;8.77;;;7.22;;
21729;SDS011;11027;51.030;13.812;2023-04-16T01:44:22;9.68;;;8.48;;
21729;SDS011;11027;51.030;13.812;2023-04-16T01:46:48;8.90;;;7.97;;
21729;SDS011;11027;51.030;13.812;2023-04-16T01:49:13;7.78;;;6.97;;
21729;SDS011;11027;51.030;13.812;2023-04-16T01:51:39;8.65;;;7.68;;
21729;SDS011;11027;51.030;13.812;2023-04-16T01:54:05;9.18;;;7.72;;
21729;SDS011;11027;51.030;13.812;2023-04-16T01:56:30;11.25;;;7.57;;
21729;SDS011;11027;51.030;13.812;2023-04-16T01:58:55;8.60;;;7.63;;
21729;SDS011;11027;51.030;13.812;2023-04-16T02:01:20;8.50;;;7.30;;
21729;SDS011;11027;51.030;13.812;2023-04-16T02:03:46;8.93;;;7.53;;
21729;SDS011;11027;51.030;13.812;2023-04-16T02:06:11;9.00;;;7.65;;
21729;SDS011;11027;51.030;13.812;2023-04-16T02:08:36;8.75;;;7.88;;
21729;SDS011;11027;51.030;13.812;2023-04-16T02:11:02;7.90;;;7.10;;
21729;SDS011;11027;51.030;13.812;2023-04-16T02:13:27;8.65;;;7.32;;
21729;SDS011;11027;51.030;13.812;2023-04-16T02:15:52;8.48;;;7.22;;
21729;SDS011;11027;51.030;13.812;2023-04-16T02:18:18;9.15;;;7.07;;
21729;SDS011;11027;51.030;13.812;2023-04-16T02:20:43;16.23;;;7.78;;
21729;SDS011;11027;51.030;13.812;2023-04-16T02:23:11;9.73;;;7.35;;
21729;SDS011;11027;51.030;13.812;2023-04-16T02:25:41;7.82;;;6.85;;
21729;SDS011;11027;51.030;13.812;2023-04-16T02:28:07;8.05;;;7.10;;
21729;SDS011;11027;51.030;13.812;2023-04-16T02:30:37;8.32;;;7.47;;
21729;SDS011;11027;51.030;13.812;2023-04-16T02:33:04;10.10;;;6.97;;
21729;SDS011;11027;51.030;13.812;2023-04-16T02:35:31;7.13;;;6.43;;
21729;SDS011;11027;51.030;13.812;2023-04-16T02:37:57;7.72;;;6.97;;
21729;SDS011;11027;51.030;13.812;2023-04-16T02:40:23;7.57;;;6.75;;
21729;SDS011;11027;51.030;13.812;2023-04-16T02:42:48;9.65;;;6.45;;
21729;SDS011;11027;51.030;13.812;2023-04-16T02:45:14;7.65;;;6.82;;
21729;SDS011;11027;51.030;13.812;2023-04-16T02:47:39;9.35;;;6.60;;
21729;SDS011;11027;51.030;13.812;2023-04-16T02:50:04;8.93;;;7.00;;
21729;SDS011;11027;51.030;13.812;2023-04-16T02:52:30;8.10;;;6.97;;
21729;SDS011;11027;51.030;13.812;2023-04-16T02:54:56;7.50;;;6.20;;
21729;SDS011;11027;51.030;13.812;2023-04-16T02:57:21;7.18;;;6.32;;
21729;SDS011;11027;51.030;13.812;2023-04-16T02:59:47;7.68;;;6.28;;
21729;SDS011;11027;51.030;13.812;2023-04-16T03:02:12;7.57;;;6.82;;
21729;SDS011;11027;51.030;13.812;2023-04-16T03:04:37;11.23;;;6.35;;
21729;SDS011;11027;51.030;13.812;2023-04-16T03:07:03;10.50;;;7.00;;
21729;SDS011;11027;51.030;13.812;2023-04-16T03:09:28;7.80;;;6.88;;
21729;SDS011;11027;51.030;13.812;2023-04-16T03:11:53;7.90;;;6.65;;
21729;SDS011;11027;51.030;13.812;2023-04-16T03:14:18;7.05;;;6.35;;
21729;SDS011;11027;51.030;13.812;2023-04-16T03:16:44;9.68;;;6.57;;
21729;SDS011;11027;51.030;13.812;2023-04-16T03:19:09;8.90;;;6.40;;
21729;SDS011;11027;51.030;13.812;2023-04-16T03:21:34;7.70;;;6.50;;
21729;SDS011;11027;51.030;13.812;2023-04-16T03:24:00;8.95;;;7.03;;
21729;SDS011;11027;51.030;13.812;2023-04-16T03:26:25;7.65;;;6.43;;
21729;SDS011;11027;51.030;13.812;2023-04-16T03:28:51;7.72;;;6.72;;
21729;SDS011;11027;51.030;13.812;2023-04-16T03:31:16;7.28;;;6.57;;
21729;SDS011;11027;51.030;13.812;2023-04-16T03:33:41;8.02;;;6.53;;
21729;SDS011;11027;51.030;13.812;2023-04-16T03:36:06;7.22;;;6.00;;
21729;SDS011;11027;51.030;13.812;2023-04-16T03:38:32;8.82;;;6.60;;
21729;SDS011;11027;51.030;13.812;2023-04-16T03:40:57;7.20;;;6.50;;
21729;SDS011;11027;51.030;13.812;2023-04-16T03:43:22;8.80;;;6.45;;
21729;SDS011;11027;51.030;13.812;2023-04-16T03:45:48;9.00;;;6.43;;
21729;SDS011;11027;51.030;13.812;2023-04-16T03:48:13;8.18;;;6.47;;
21729;SDS011;11027;51.030;13.812;2023-04-16T03:50:38;6.47;;;5.88;;
21729;SDS011;11027;51.030;13.812;2023-04-16T03:53:03;7.00;;;5.82;;
21729;SDS011;11027;51.030;13.812;2023-04-16T03:55:29;11.93;;;6.00;;
21729;SDS011;11027;51.030;13.812;2023-04-16T03:57:54;6.45;;;5.85;;
21729;SDS011;11027;51.030;13.812;2023-04-16T04:00:20;7.50;;;6.60;;
21729;SDS011;11027;51.030;13.812;2023-04-16T04:02:45;8.18;;;6.25;;
21729;SDS011;11027;51.030;13.812;2023-04-16T04:05:10;9.68;;;6.03;;
21729;SDS011;11027;51.030;13.812;2023-04-16T04:07:36;8.98;;;6.03;;
21729;SDS011;11027;51.030;13.812;2023-04-16T04:10:01;7.50;;;6.30;;
21729;SDS011;11027;51.030;13.812;2023-04-16T04:12:26;6.90;;;6.00;;
21729;SDS011;11027;51.030;13.812;2023-04-16T04:14:51;7.10;;;6.40;;
21729;SDS011;11027;51.030;13.812;2023-04-16T04:17:17;5.93;;;5.40;;
21729;SDS011;11027;51.030;13.812;2023-04-16T04:19:42;7.90;;;6.00;;
21729;SDS011;11027;51.030;13.812;2023-04-16T04:22:07;7.15;;;6.45;;
21729;SDS011;11027;51.030;13.812;2023-04-16T04:24:32;9.30;;;6.05;;
21729;SDS011;11027;51.030;13.812;2023-04-16T04:26:58;7.05;;;6.05;;
21729;SDS011;11027;51.030;13.812;2023-04-16T04:29:23;6.72;;;6.13;;
21729;SDS011;11027;51.030;13.812;2023-04-16T04:31:48;7.50;;;6.40;;
21729;SDS011;11027;51.030;13.812;2023-04-16T04:34:13;6.75;;;6.10;;
21729;SDS011;11027;51.030;13.812;2023-04-16T04:36:39;6.88;;;6.18;;
21729;SDS011;11027;51.030;13.812;2023-04-16T04:39:04;7.97;;;6.55;;
21729;SDS011;11027;51.030;13.812;2023-04-16T04:41:30;7.30;;;6.57;;
21729;SDS011;11027;51.030;13.812;2023-04-16T04:43:55;8.13;;;6.55;;
21729;SDS011;11027;51.030;13.812;2023-04-16T04:46:20;8.40;;;6.82;;
21729;SDS011;11027;51.030;13.812;2023-04-16T04:48:46;6.53;;;5.93;;
21729;SDS011;11027;51.030;13.812;2023-04-16T04:51:11;6.78;;;6.00;;
21729;SDS011;11027;51.030;13.812;2023-04-16T04:53:36;8.50;;;6.55;;
21729;SDS011;11027;51.030;13.812;2023-04-16T04:56:01;6.90;;;6.30;;
21729;SDS011;11027;51.030;13.812;2023-04-16T04:58:26;7.28;;;6.20;;
21729;SDS011;11027;51.030;13.812;2023-04-16T05:00:52;6.90;;;6.03;;
21729;SDS011;11027;51.030;13.812;2023-04-16T05:03:20;7.97;;;6.38;;
21729;SDS011;11027;51.030;13.812;2023-04-16T05:05:45;6.18;;;5.57;;
21729;SDS011;11027;51.030;13.812;2023-04-16T05:08:11;6.20;;;5.53;;
21729;SDS011;11027;51.030;13.812;2023-04-16T05:10:36;9.15;;;5.95;;
21729;SDS011;11027;51.030;13.812;2023-04-16T05:13:02;6.75;;;6.05;;
21729;SDS011;11027;51.030;13.812;2023-04-16T05:15:27;6.85;;;6.00;;
21729;SDS011;11027;51.030;13.812;2023-04-16T05:17:52;7.47;;;6.00;;
21729;SDS011;11027;51.030;13.812;2023-04-16T05:20:19;7.88;;;5.75;;
21729;SDS011;11027;51.030;13.812;2023-04-16T05:22:45;6.90;;;6.20;;
21729;SDS011;11027;51.030;13.812;2023-04-16T05:25:10;7.05;;;6.05;;
21729;SDS011;11027;51.030;13.812;2023-04-16T05:27:35;7.35;;;6.50;;
21729;SDS011;11027;51.030;13.812;2023-04-16T05:30:01;8.13;;;6.85;;
21729;SDS011;11027;51.030;13.812;2023-04-16T05:32:26;6.93;;;6.10;;
21729;SDS011;11027;51.030;13.812;2023-04-16T05:34:52;9.13;;;6.47;;
21729;SDS011;11027;51.030;13.812;2023-04-16T05:37:17;9.25;;;6.80;;
21729;SDS011;11027;51.030;13.812;2023-04-16T05:39:42;8.13;;;6.95;;
21729;SDS011;11027;51.030;13.812;2023-04-16T05:42:07;8.88;;;6.30;;
21729;SDS011;11027;51.030;13.812;2023-04-16T05:44:33;9.25;;;7.22;;
21729;SDS011;11027;51.030;13.812;2023-04-16T05:46:58;8.63;;;7.72;;
21729;SDS011;11027;51.030;13.812;2023-04-16T05:49:23;9.00;;;7.03;;
21729;SDS011;11027;51.030;13.812;2023-04-16T05:51:49;7.53;;;6.75;;
21729;SDS011;11027;51.030;13.812;2023-04-16T05:54:14;8.52;;;7.40;;
21729;SDS011;11027;51.030;13.812;2023-04-16T05:56:39;8.95;;;7.88;;
21729;SDS011;11027;51.030;13.812;2023-04-16T05:59:05;9.38;;;7.75;;
21729;SDS011;11027;51.030;13.812;2023-04-16T06:01:31;8.60;;;7.50;;
21729;SDS011;11027;51.030;13.812;2023-04-16T06:03:56;9.73;;;7.82;;
21729;SDS011;11027;51.030;13.812;2023-04-16T06:06:21;8.88;;;7.82;;
21729;SDS011;11027;51.030;13.812;2023-04-16T06:08:47;9.15;;;7.80;;
21729;SDS011;11027;51.030;13.812;2023-04-16T06:11:12;9.85;;;8.10;;
21729;SDS011;11027;51.030;13.812;2023-04-16T06:13:37;10.82;;;8.52;;
21729;SDS011;11027;51.030;13.812;2023-04-16T06:16:03;9.63;;;7.90;;
21729;SDS011;11027;51.030;13.812;2023-04-16T06:18:28;9.27;;;8.10;;
21729;SDS011;11027;51.030;13.812;2023-04-16T06:20:54;12.23;;;8.57;;
21729;SDS011;11027;51.030;13.812;2023-04-16T06:23:19;9.40;;;8.20;;
21729;SDS011;11027;51.030;13.812;2023-04-16T06:25:45;9.30;;;8.27;;
21729;SDS011;11027;51.030;13.812;2023-04-16T06:28:10;9.93;;;8.75;;
21729;SDS011;11027;51.030;13.812;2023-04-16T06:30:35;10.70;;;8.23;;
21729;SDS011;11027;51.030;13.812;2023-04-16T06:33:00;13.88;;;10.35;;
21729;SDS011;11027;51.030;13.812;2023-04-16T06:35:26;10.75;;;9.27;;
21729;SDS011;11027;51.030;13.812;2023-04-16T06:37:51;10.35;;;9.15;;
21729;SDS011;11027;51.030;13.812;2023-04-16T06:40:16;9.73;;;8.65;;
21729;SDS011;11027;51.030;13.812;2023-04-16T06:42:42;11.82;;;9.48;;
21729;SDS011;11027;51.030;13.812;2023-04-16T06:45:07;9.75;;;8.60;;
21729;SDS011;11027;51.030;13.812;2023-04-16T06:47:33;12.35;;;9.68;;
21729;SDS011;11027;51.030;13.812;2023-04-16T06:49:58;12.18;;;9.40;;
21729;SDS011;11027;51.030;13.812;2023-04-16T06:52:23;12.25;;;9.52;;
21729;SDS011;11027;51.030;13.812;2023-04-16T06:54:48;12.77;;;9.85;;
21729;SDS011;11027;51.030;13.812;2023-04-16T06:57:14;11.73;;;9.95;;
21729;SDS011;11027;51.030;13.812;2023-04-16T06:59:40;11.10;;;9.77;;
21729;SDS011;11027;51.030;13.812;2023-04-16T07:02:06;11.57;;;9.55;;
21729;SDS011;11027;51.030;13.812;2023-04-16T07:04:33;11.00;;;9.57;;
21729;SDS011;11027;51.030;13.812;2023-04-16T07:06:59;12.05;;;9.55;;
21729;SDS011;11027;51.030;13.812;2023-04-16T07:09:24;13.52;;;10.50;;
21729;SDS011;11027;51.030;13.812;2023-04-16T07:11:50;12.18;;;10.10;;
21729;SDS011;11027;51.030;13.812;2023-04-16T07:14:15;11.25;;;9.45;;
21729;SDS011;11027;51.030;13.812;2023-04-16T07:16:41;13.88;;;10.50;;
21729;SDS011;11027;51.030;13.812;2023-04-16T07:19:06;12.10;;;10.02;;
21729;SDS011;11027;51.030;13.812;2023-04-16T07:21:31;14.05;;;10.15;;
21729;SDS011;11027;51.030;13.812;2023-04-16T07:23:57;12.02;;;10.48;;
21729;SDS011;11027;51.030;13.812;2023-04-16T07:26:22;12.45;;;10.85;;
21729;SDS011;11027;51.030;13.812;2023-04-16T07:28:47;13.75;;;10.77;;
21729;SDS011;11027;51.030;13.812;2023-04-16T07:31:12;12.15;;;9.95;;
21729;SDS011;11027;51.030;13.812;2023-04-16T07:33:38;11.15;;;9.75;;
21729;SDS011;11027;51.030;13.812;2023-04-16T07:36:03;14.20;;;10.25;;
21729;SDS011;11027;51.030;13.812;2023-04-16T07:38:29;12.57;;;10.20;;
21729;SDS011;11027;51.030;13.812;2023-04-16T07:40:54;12.30;;;10.18;;
21729;SDS011;11027;51.030;13.812;2023-04-16T07:43:20;11.85;;;9.88;;
21729;SDS011;11027;51.030;13.812;2023-04-16T07:45:45;12.15;;;10.30;;
21729;SDS011;11027;51.030;13.812;2023-04-16T07:48:10;12.10;;;9.77;;
21729;SDS011;11027;51.030;13.812;2023-04-16T07:50:36;12.43;;;9.90;;
21729;SDS011;11027;51.030;13.812;2023-04-16T07:53:01;11.02;;;9.82;;
21729;SDS011;11027;51.030;13.812;2023-04-16T07:55:26;10.82;;;9.60;;
21729;SDS011;11027;51.030;13.812;2023-04-16T07:57:51;12.35;;;10.43;;
21729;SDS011;11027;51.030;13.812;2023-04-16T08:00:17;12.85;;;10.43;;
21729;SDS011;11027;51.030;13.812;2023-04-16T08:02:43;12.05;;;10.60;;
21729;SDS011;11027;51.030;13.812;2023-04-16T08:05:08;16.20;;;11.32;;
21729;SDS011;11027;51.030;13.812;2023-04-16T08:07:34;13.00;;;10.68;;
21729;SDS011;11027;51.030;13.812;2023-04-16T08:10:00;12.02;;;10.43;;
21729;SDS011;11027;51.030;13.812;2023-04-16T08:12:26;12.23;;;10.52;;
21729;SDS011;11027;51.030;13.812;2023-04-16T08:14:51;12.13;;;10.63;;
21729;SDS011;11027;51.030;13.812;2023-04-16T08:17:16;13.10;;;10.57;;
21729;SDS011;11027;51.030;13.812;2023-04-16T08:19:42;12.45;;;10.35;;
21729;SDS011;11027;51.030;13.812;2023-04-16T08:22:11;12.88;;;10.85;;
21729;SDS011;11027;51.030;13.812;2023-04-16T08:24:37;12.52;;;10.88;;
21729;SDS011;11027;51.030;13.812;2023-04-16T08:27:02;12.52;;;10.93;;
21729;SDS011;11027;51.030;13.812;2023-04-16T08:29:28;12.48;;;10.90;;
21729;SDS011;11027;51.030;13.812;2023-04-16T08:31:53;13.95;;;12.02;;
21729;SDS011;11027;51.030;13.812;2023-04-16T08:34:19;13.93;;;12.07;;
21729;SDS011;11027;51.030;13.812;2023-04-16T08:36:44;13.68;;;11.98;;
21729;SDS011;11027;51.030;13.812;2023-04-16T08:39:10;16.33;;;12.07;;
21729;SDS011;11027;51.030;13.812;2023-04-16T08:41:35;12.85;;;11.45;;
21729;SDS011;11027;51.030;13.812;2023-04-16T08:44:10;17.38;;;12.57;;
21729;SDS011;11027;51.030;13.812;2023-04-16T08:46:57;16.90;;;12.63;;
21729;SDS011;11027;51.030;13.812;2023-04-16T08:49:23;15.38;;;13.25;;
21729;SDS011;11027;51.030;13.812;2023-04-16T08:51:50;16.40;;;13.60;;
21729;SDS011;11027;51.030;13.812;2023-04-16T08:54:23;20.48;;;13.48;;
21729;SDS011;11027;51.030;13.812;2023-04-16T08:56:56;15.50;;;13.10;;
21729;SDS011;11027;51.030;13.812;2023-04-16T08:59:23;16.88;;;14.18;;
21729;SDS011;11027;51.030;13.812;2023-04-16T09:01:49;15.05;;;12.80;;
21729;SDS011;11027;51.030;13.812;2023-04-16T09:04:16;15.93;;;12.50;;
21729;SDS011;11027;51.030;13.812;2023-04-16T09:06:42;14.75;;;12.05;;
21729;SDS011;11027;51.030;13.812;2023-04-16T09:09:09;13.07;;;9.95;;
21729;SDS011;11027;51.030;13.812;2023-04-16T09:11:36;10.85;;;9.23;;
21729;SDS011;11027;51.030;13.812;2023-04-16T09:14:03;15.57;;;10.70;;
21729;SDS011;11027;51.030;13.812;2023-04-16T09:16:30;11.43;;;9.68;;
21729;SDS011;11027;51.030;13.812;2023-04-16T09:18:57;11.13;;;9.73;;
21729;SDS011;11027;51.030;13.812;2023-04-16T09:21:23;12.45;;;9.98;;
21729;SDS011;11027;51.030;13.812;2023-04-16T09:23:49;10.63;;;9.20;;
21729;SDS011;11027;51.030;13.812;2023-04-16T09:26:17;12.27;;;9.63;;
21729;SDS011;11027;51.030;13.812;2023-04-16T09:28:44;13.30;;;8.95;;
21729;SDS011;11027;51.030;13.812;2023-04-16T09:31:14;9.27;;;7.38;;
21729;SDS011;11027;51.030;13.812;2023-04-16T09:33:41;9.30;;;7.97;;
21729;SDS011;11027;51.030;13.812;2023-04-16T09:36:07;11.48;;;8.90;;
21729;SDS011;11027;51.030;13.812;2023-04-16T09:38:46;10.10;;;8.10;;
21729;SDS011;11027;51.030;13.812;2023-04-16T09:41:12;7.68;;;6.70;;
21729;SDS011;11027;51.030;13.812;2023-04-16T09:43:40;9.90;;;8.30;;
21729;SDS011;11027;51.030;13.812;2023-04-16T09:46:06;10.55;;;8.38;;
21729;SDS011;11027;51.030;13.812;2023-04-16T09:48:36;9.18;;;8.13;;
21729;SDS011;11027;51.030;13.812;2023-04-16T09:51:01;10.05;;;8.23;;
21729;SDS011;11027;51.030;13.812;2023-04-16T09:53:30;10.23;;;8.27;;
21729;SDS011;11027;51.030;13.812;2023-04-16T09:56:01;9.48;;;8.27;;
21729;SDS011;11027;51.030;13.812;2023-04-16T09:58:28;8.35;;;7.45;;
21729;SDS011;11027;51.030;13.812;2023-04-16T10:01:16;8.80;;;7.90;;
21729;SDS011;11027;51.030;13.812;2023-04-16T10:03:41;9.88;;;7.43;;
21729;SDS011;11027;51.030;13.812;2023-04-16T10:06:13;10.23;;;7.18;;
21729;SDS011;11027;51.030;13.812;2023-04-16T10:08:46;8.43;;;7.53;;
21729;SDS011;11027;51.030;13.812;2023-04-16T10:11:12;8.32;;;7.43;;
21729;SDS011;11027;51.030;13.812;2023-04-16T10:13:37;8.68;;;6.90;;
21729;SDS011;11027;51.030;13.812;2023-04-16T10:16:02;7.53;;;6.72;;
21729;SDS011;11027;51.030;13.812;2023-04-16T10:18:28;11.70;;;8.68;;
21729;SDS011;11027;51.030;13.812;2023-04-16T10:20:54;9.43;;;8.43;;
21729;SDS011;11027;51.030;13.812;2023-04-16T10:23:21;9.50;;;8.00;;
21729;SDS011;11027;51.030;13.812;2023-04-16T10:25:47;9.18;;;8.20;;
21729;SDS011;11027;51.030;13.812;2023-04-16T10:28:14;8.75;;;7.80;;
21729;SDS011;11027;51.030;13.812;2023-04-16T10:30:39;7.47;;;6.25;;
21729;SDS011;11027;51.030;13.812;2023-04-16T10:33:07;8.98;;;7.45;;
21729;SDS011;11027;51.030;13.812;2023-04-16T10:35:37;7.00;;;6.15;;
21729;SDS011;11027;51.030;13.812;2023-04-16T10:38:23;7.93;;;5.97;;
21729;SDS011;11027;51.030;13.812;2023-04-16T10:40:59;7.65;;;5.20;;
21729;SDS011;11027;51.030;13.812;2023-04-16T10:43:27;7.13;;;5.82;;
21729;SDS011;11027;51.030;13.812;2023-04-16T10:45:53;7.15;;;5.00;;
21729;SDS011;11027;51.030;13.812;2023-04-16T10:48:19;6.82;;;6.00;;
21729;SDS011;11027;51.030;13.812;2023-04-16T10:50:54;6.90;;;6.05;;
21729;SDS011;11027;51.030;13.812;2023-04-16T10:53:24;8.38;;;6.40;;
21729;SDS011;11027;51.030;13.812;2023-04-16T10:58:29;6.97;;;5.78;;
21729;SDS011;11027;51.030;13.812;2023-04-16T11:00:59;8.40;;;6.45;;
21729;SDS011;11027;51.030;13.812;2023-04-16T11:03:25;7.10;;;6.40;;
21729;SDS011;11027;51.030;13.812;2023-04-16T11:06:15;8.90;;;5.82;;
21729;SDS011;11027;51.030;13.812;2023-04-16T11:08:44;7.25;;;5.63;;
21729;SDS011;11027;51.030;13.812;2023-04-16T11:11:10;5.97;;;5.38;;
21729;SDS011;11027;51.030;13.812;2023-04-16T11:13:36;6.63;;;4.82;;
21729;SDS011;11027;51.030;13.812;2023-04-16T11:16:02;4.90;;;4.38;;
21729;SDS011;11027;51.030;13.812;2023-04-16T11:18:30;5.43;;;4.57;;
21729;SDS011;11027;51.030;13.812;2023-04-16T11:20:56;7.82;;;6.57;;
21729;SDS011;11027;51.030;13.812;2023-04-16T11:23:22;7.82;;;7.03;;
21729;SDS011;11027;51.030;13.812;2023-04-16T11:25:47;9.35;;;7.55;;
21729;SDS011;11027;51.030;13.812;2023-04-16T11:28:15;7.55;;;6.72;;
21729;SDS011;11027;51.030;13.812;2023-04-16T11:30:40;8.13;;;6.65;;
21729;SDS011;11027;51.030;13.812;2023-04-16T11:33:06;7.53;;;6.80;;
21729;SDS011;11027;51.030;13.812;2023-04-16T11:35:33;7.05;;;6.35;;
21729;SDS011;11027;51.030;13.812;2023-04-16T11:37:58;7.72;;;6.47;;
21729;SDS011;11027;51.030;13.812;2023-04-16T11:40:24;8.02;;;6.40;;
21729;SDS011;11027;51.030;13.812;2023-04-16T11:42:53;7.40;;;6.30;;
21729;SDS011;11027;51.030;13.812;2023-04-16T11:45:18;7.53;;;6.72;;
21729;SDS011;11027;51.030;13.812;2023-04-16T11:50:20;6.78;;;5.97;;
21729;SDS011;11027;51.030;13.812;2023-04-16T11:52:50;7.50;;;6.05;;
21729;SDS011;11027;51.030;13.812;2023-04-16T11:55:17;6.88;;;5.88;;
21729;SDS011;11027;51.030;13.812;2023-04-16T11:57:42;13.10;;;8.35;;
21729;SDS011;11027;51.030;13.812;2023-04-16T12:00:07;5.97;;;5.32;;
21729;SDS011;11027;51.030;13.812;2023-04-16T12:02:44;6.15;;;5.32;;
21729;SDS011;11027;51.030;13.812;2023-04-16T12:07:54;5.70;;;4.65;;
21729;SDS011;11027;51.030;13.812;2023-04-16T12:10:23;7.18;;;5.00;;
21729;SDS011;11027;51.030;13.812;2023-04-16T12:12:49;6.55;;;5.05;;
21729;SDS011;11027;51.030;13.812;2023-04-16T12:15:14;6.28;;;5.45;;
21729;SDS011;11027;51.030;13.812;2023-04-16T12:17:40;5.78;;;4.40;;
21729;SDS011;11027;51.030;13.812;2023-04-16T12:20:09;9.15;;;5.60;;
21729;SDS011;11027;51.030;13.812;2023-04-16T12:22:35;4.22;;;3.72;;
21729;SDS011;11027;51.030;13.812;2023-04-16T12:25:02;5.55;;;4.03;;
21729;SDS011;11027;51.030;13.812;2023-04-16T12:27:50;4.95;;;3.70;;
21729;SDS011;11027;51.030;13.812;2023-04-16T12:30:23;4.13;;;3.50;;
21729;SDS011;11027;51.030;13.812;2023-04-16T12:32:51;3.30;;;2.92;;
21729;SDS011;11027;51.030;13.812;2023-04-16T12:35:36;6.47;;;2.90;;
21729;SDS011;11027;51.030;13.812;2023-04-16T12:38:02;3.03;;;2.55;;
21729;SDS011;11027;51.030;13.812;2023-04-16T12:40:27;2.97;;;2.67;;
21729;SDS011;11027;51.030;13.812;2023-04-16T12:42:52;2.10;;;1.90;;
21729;SDS011;11027;51.030;13.812;2023-04-16T12:45:18;5.03;;;2.90;;
21729;SDS011;11027;51.030;13.812;2023-04-16T12:47:44;3.60;;;2.97;;
21729;SDS011;11027;51.030;13.812;2023-04-16T12:50:09;4.32;;;3.60;;
21729;SDS011;11027;51.030;13.812;2023-04-16T12:52:34;3.75;;;3.10;;
21729;SDS011;11027;51.030;13.812;2023-04-16T12:55:00;3.53;;;3.22;;
21729;SDS011;11027;51.030;13.812;2023-04-16T12:57:26;3.95;;;3.53;;
21729;SDS011;11027;51.030;13.812;2023-04-16T12:59:52;3.15;;;2.95;;
21729;SDS011;11027;51.030;13.812;2023-04-16T13:02:19;3.45;;;2.95;;
21729;SDS011;11027;51.030;13.812;2023-04-16T13:04:44;3.35;;;2.60;;
21729;SDS011;11027;51.030;13.812;2023-04-16T13:07:10;6.00;;;3.25;;
21729;SDS011;11027;51.030;13.812;2023-04-16T13:09:35;5.10;;;4.13;;
21729;SDS011;11027;51.030;13.812;2023-04-16T13:12:00;3.33;;;3.00;;
21729;SDS011;11027;51.030;13.812;2023-04-16T13:14:25;3.90;;;3.50;;
21729;SDS011;11027;51.030;13.812;2023-04-16T13:16:51;4.18;;;3.08;;
21729;SDS011;11027;51.030;13.812;2023-04-16T13:19:16;3.90;;;3.22;;
21729;SDS011;11027;51.030;13.812;2023-04-16T13:21:43;5.63;;;3.78;;
21729;SDS011;11027;51.030;13.812;2023-04-16T13:24:08;4.43;;;3.20;;
21729;SDS011;11027;51.030;13.812;2023-04-16T13:26:33;3.25;;;2.90;;
21729;SDS011;11027;51.030;13.812;2023-04-16T13:28:58;5.25;;;3.55;;
21729;SDS011;11027;51.030;13.812;2023-04-16T13:31:24;3.47;;;3.17;;
21729;SDS011;11027;51.030;13.812;2023-04-16T13:33:49;4.20;;;3.80;;
21729;SDS011;11027;51.030;13.812;2023-04-16T13:36:15;4.80;;;4.28;;
21729;SDS011;11027;51.030;13.812;2023-04-16T13:38:40;4.25;;;3.10;;
21729;SDS011;11027;51.030;13.812;2023-04-16T13:41:06;3.28;;;2.60;;
21729;SDS011;11027;51.030;13.812;2023-04-16T13:43:31;4.57;;;3.40;;
21729;SDS011;11027;51.030;13.812;2023-04-16T13:45:57;4.82;;;3.08;;
21729;SDS011;11027;51.030;13.812;2023-04-16T13:48:22;3.38;;;3.08;;
21729;SDS011;11027;51.030;13.812;2023-04-16T13:50:48;3.55;;;3.13;;
21729;SDS011;11027;51.030;13.812;2023-04-16T13:53:13;3.33;;;3.03;;
21729;SDS011;11027;51.030;13.812;2023-04-16T13:55:38;3.80;;;3.47;;
21729;SDS011;11027;51.030;13.812;2023-04-16T13:58:04;3.95;;;3.55;;
21729;SDS011;11027;51.030;13.812;2023-04-16T14:00:31;4.32;;;3.83;;
21729;SDS011;11027;51.030;13.812;2023-04-16T14:02:56;4.80;;;4.18;;
21729;SDS011;11027;51.030;13.812;2023-04-16T14:05:21;4.20;;;3.80;;
21729;SDS011;11027;51.030;13.812;2023-04-16T14:07:47;4.63;;;4.22;;
21729;SDS011;11027;51.030;13.812;2023-04-16T14:10:12;4.47;;;3.80;;
21729;SDS011;11027;51.030;13.812;2023-04-16T14:12:38;5.03;;;4.15;;
21729;SDS011;11027;51.030;13.812;2023-04-16T14:15:04;4.97;;;4.25;;
21729;SDS011;11027;51.030;13.812;2023-04-16T14:17:30;4.60;;;4.20;;
21729;SDS011;11027;51.030;13.812;2023-04-16T14:19:56;4.20;;;3.80;;
21729;SDS011;11027;51.030;13.812;2023-04-16T14:22:21;4.43;;;4.00;;
21729;SDS011;11027;51.030;13.812;2023-04-16T14:24:46;4.80;;;3.78;;
21729;SDS011;11027;51.030;13.812;2023-04-16T14:27:11;3.90;;;3.45;;
21729;SDS011;11027;51.030;13.812;2023-04-16T14:29:37;4.78;;;3.75;;
21729;SDS011;11027;51.030;13.812;2023-04-16T14:32:02;4.07;;;3.50;;